createdAt,value
2022-10-18T00:01:59.731Z,14.31
2022-10-18T00:05:03.701Z,14.33
2022-10-18T00:08:06.444Z,14.28
2022-10-18T00:11:09.536Z,14.29
2022-10-18T00:14:12.282Z,14.33
2022-10-18T00:17:15.236Z,14.34
2022-10-18T00:20:18.013Z,14.05
2022-10-18T00:23:21.084Z,13.91
2022-10-18T00:26:26.326Z,13.68
2022-10-18T00:29:29.326Z,13.58
2022-10-18T00:32:40.201Z,13.53
2022-10-18T00:35:43.347Z,13.40
2022-10-18T00:38:46.799Z,13.14
2022-10-18T00:41:50.902Z,13.03
2022-10-18T00:45:21.378Z,13.03
2022-10-18T00:48:24.782Z,13.12
2022-10-18T00:51:31.243Z,13.26
2022-10-18T00:54:37.308Z,13.34
2022-10-18T00:57:42.345Z,13.34
2022-10-18T01:00:45.531Z,13.36
2022-10-18T01:03:48.687Z,13.36
2022-10-18T01:07:01.703Z,13.30
2022-10-18T01:10:10.546Z,13.19
2022-10-18T01:13:25.595Z,13.15
2022-10-18T01:16:44.719Z,12.97
2022-10-18T01:20:03.821Z,12.98
2022-10-18T01:23:57.576Z,12.99
2022-10-18T01:27:12.791Z,12.93
2022-10-18T01:30:33.610Z,12.62
2022-10-18T01:33:45.633Z,12.44
2022-10-18T01:36:51.071Z,12.21
2022-10-18T01:39:55.836Z,12.16
2022-10-18T01:42:58.579Z,12.05
2022-10-18T01:46:02.174Z,11.94
2022-10-18T01:49:05.329Z,11.87
2022-10-18T01:52:13.298Z,11.76
2022-10-18T01:55:16.270Z,11.79
2022-10-18T01:58:44.801Z,11.64
2022-10-18T02:02:06.971Z,11.60
2022-10-18T02:05:09.896Z,11.53
2022-10-18T02:08:24.880Z,11.50
2022-10-18T02:11:29.859Z,11.48
2022-10-18T02:14:33.361Z,11.43
2022-10-18T02:17:37.754Z,11.41
2022-10-18T02:20:40.481Z,11.43
2022-10-18T02:23:45.757Z,11.47
2022-10-18T02:26:48.489Z,11.50
2022-10-18T02:29:52.171Z,11.25
2022-10-18T02:33:03.622Z,11.13
2022-10-18T02:36:13.925Z,11.11
2022-10-18T02:39:19.648Z,11.02
2022-10-18T02:42:22.663Z,11.04
2022-10-18T02:45:26.278Z,11.05
2022-10-18T02:48:29.323Z,11.09
2022-10-18T02:51:32.189Z,11.04
2022-10-18T02:54:35.195Z,11.04
2022-10-18T02:57:37.935Z,11.05
2022-10-18T03:00:40.910Z,11.03
2022-10-18T03:03:43.628Z,11.05
2022-10-18T03:06:47.919Z,11.05
2022-10-18T03:09:50.677Z,11.08
2022-10-18T03:12:54.680Z,10.93
2022-10-18T03:15:57.423Z,10.87
2022-10-18T03:19:00.436Z,10.87
2022-10-18T03:22:03.184Z,10.87
2022-10-18T03:25:06.354Z,10.81
2022-10-18T03:28:09.126Z,10.81
2022-10-18T03:31:12.119Z,10.78
2022-10-18T03:34:15.906Z,10.74
2022-10-18T03:37:18.962Z,10.68
2022-10-18T03:40:21.853Z,10.68
2022-10-18T03:43:25.128Z,10.60
2022-10-18T03:46:27.991Z,10.65
2022-10-18T03:52:34.739Z,10.46
2022-10-18T03:55:38.271Z,10.27
2022-10-18T03:58:41.126Z,10.17
2022-10-18T04:01:44.556Z,10.11
2022-10-18T04:04:47.761Z,10.10
2022-10-18T04:07:50.862Z,10.01
2022-10-18T04:10:53.948Z,9.97
2022-10-18T04:13:56.809Z,9.91
2022-10-18T04:16:59.809Z,9.83
2022-10-18T04:20:02.530Z,9.80
2022-10-18T04:23:06.723Z,9.83
2022-10-18T04:26:09.545Z,9.83
2022-10-18T04:29:13.609Z,9.76
2022-10-18T04:32:16.314Z,9.82
2022-10-18T04:35:22.706Z,9.83
2022-10-18T04:38:25.434Z,9.81
2022-10-18T04:41:28.389Z,9.71
2022-10-18T04:44:30.951Z,9.72
2022-10-18T04:47:34.289Z,9.68
2022-10-18T04:50:37.219Z,9.70
2022-10-18T04:53:43.118Z,9.71
2022-10-18T04:56:45.820Z,9.70
2022-10-18T04:59:48.851Z,9.77
2022-10-18T05:02:58.987Z,9.80
2022-10-18T05:06:03.136Z,9.82
2022-10-18T05:09:06.293Z,9.83
2022-10-18T05:12:09.605Z,9.87
2022-10-18T05:15:12.345Z,9.84
2022-10-18T05:18:15.463Z,9.77
2022-10-18T05:21:18.538Z,9.77
2022-10-18T05:24:24.142Z,9.68
2022-10-18T05:27:30.155Z,9.61
2022-10-18T05:30:33.331Z,9.59
2022-10-18T05:33:36.427Z,9.63
2022-10-18T05:36:39.408Z,9.70
2022-10-18T05:39:42.249Z,9.75
2022-10-18T05:42:45.280Z,9.83
2022-10-18T05:45:49.431Z,9.88
2022-10-18T05:48:52.409Z,9.96
2022-10-18T05:51:55.181Z,10.03
2022-10-18T05:54:58.208Z,10.14
2022-10-18T05:58:00.948Z,10.25
2022-10-18T06:01:05.607Z,10.39
2022-10-18T06:04:10.871Z,10.24
2022-10-18T06:07:13.822Z,10.31
2022-10-18T06:10:18.108Z,10.28
2022-10-18T06:13:20.870Z,10.33
2022-10-18T06:16:28.546Z,10.41
2022-10-18T06:19:34.663Z,10.45
2022-10-18T06:22:37.687Z,10.45
2022-10-18T06:25:40.376Z,10.49
2022-10-18T06:28:43.471Z,10.64
2022-10-18T06:31:46.323Z,10.76
2022-10-18T06:34:49.300Z,10.83
2022-10-18T06:37:52.177Z,10.87
2022-10-18T06:40:57.739Z,11.01
2022-10-18T06:44:04.007Z,10.93
2022-10-18T06:47:08.169Z,11.07
2022-10-18T06:50:11.769Z,11.27
2022-10-18T06:53:14.756Z,11.42
2022-10-18T06:56:17.470Z,11.53
2022-10-18T06:59:21.639Z,11.66
2022-10-18T07:02:24.394Z,11.78
2022-10-18T07:05:28.475Z,11.93
2022-10-18T07:08:31.653Z,11.94
2022-10-18T07:11:34.807Z,12.01
2022-10-18T07:14:37.548Z,11.99
2022-10-18T07:17:40.591Z,12.20
2022-10-18T07:20:43.355Z,12.28
2022-10-18T07:23:47.265Z,12.29
2022-10-18T07:26:50.392Z,12.24
2022-10-18T07:29:53.444Z,11.99
2022-10-18T07:32:56.464Z,12.45
2022-10-18T07:36:04.871Z,12.69
2022-10-18T07:39:07.912Z,12.73
2022-10-18T07:42:10.934Z,12.70
2022-10-18T07:45:14.777Z,13.04
2022-10-18T07:48:18.008Z,13.24
2022-10-18T07:51:22.241Z,13.35
2022-10-18T07:54:25.234Z,13.49
2022-10-18T07:57:28.018Z,13.70
2022-10-18T08:00:31.079Z,13.89
2022-10-18T08:03:34.840Z,14.08
2022-10-18T08:06:37.557Z,14.10
2022-10-18T08:09:40.633Z,14.30
2022-10-18T08:12:43.422Z,14.36
2022-10-18T08:15:46.588Z,14.59
2022-10-18T08:18:49.467Z,14.72
2022-10-18T08:21:52.507Z,14.80
2022-10-18T08:24:55.200Z,14.86
2022-10-18T08:27:58.849Z,14.74
2022-10-18T08:31:06.039Z,14.65
2022-10-18T08:34:09.949Z,15.16
2022-10-18T08:37:12.684Z,15.27
2022-10-18T08:40:16.107Z,15.50
2022-10-18T08:43:29.194Z,15.62
2022-10-18T08:46:36.385Z,15.83
2022-10-18T08:49:45.632Z,15.99
2022-10-18T08:53:20.185Z,16.06
2022-10-18T08:56:24.593Z,16.09
2022-10-18T08:59:34.407Z,16.21
2022-10-18T09:02:46.459Z,16.21
2022-10-18T09:05:55.611Z,16.34
2022-10-18T09:09:13.583Z,16.45
2022-10-18T09:12:42.939Z,16.57
2022-10-18T09:15:59.918Z,16.76
2022-10-18T09:19:11.810Z,16.88
2022-10-18T09:22:18.648Z,17.09
2022-10-18T09:25:37.885Z,17.14
2022-10-18T09:28:53.288Z,17.21
2022-10-18T09:31:58.957Z,17.30
2022-10-18T09:35:21.153Z,17.72
2022-10-18T09:38:28.329Z,17.83
2022-10-18T09:41:52.269Z,17.98
2022-10-18T09:44:59.947Z,17.95
2022-10-18T09:48:29.548Z,18.10
2022-10-18T09:51:37.784Z,18.14
2022-10-18T09:54:44.428Z,18.29
2022-10-18T09:57:51.350Z,18.43
2022-10-18T10:00:55.600Z,18.54
2022-10-18T10:03:58.716Z,18.48
2022-10-18T10:07:02.827Z,18.55
2022-10-18T10:10:11.232Z,18.55
2022-10-18T10:13:23.188Z,18.62
2022-10-18T10:16:27.172Z,18.66
2022-10-18T10:19:37.592Z,18.65
2022-10-18T10:22:42.050Z,18.88
2022-10-18T10:25:51.807Z,18.87
2022-10-18T10:28:55.152Z,18.91
2022-10-18T10:32:04.655Z,18.99
2022-10-18T10:35:33.957Z,19.05
2022-10-18T10:38:44.590Z,19.21
2022-10-18T10:42:00.109Z,19.35
2022-10-18T10:45:02.883Z,19.52
2022-10-18T10:48:14.923Z,19.44
2022-10-18T10:51:29.562Z,19.54
2022-10-18T10:54:47.550Z,19.66
2022-10-18T10:57:54.247Z,19.88
2022-10-18T11:00:58.080Z,19.87
2022-10-18T11:04:22.187Z,19.96
2022-10-18T11:07:30.450Z,20.18
2022-10-18T11:10:35.204Z,20.10
2022-10-18T11:13:50.037Z,20.18
2022-10-18T11:17:07.738Z,20.38
2022-10-18T11:20:38.370Z,20.79
2022-10-18T11:23:42.813Z,21.14
2022-10-18T11:26:54.661Z,21.34
2022-10-18T11:30:13.770Z,21.98
2022-10-18T11:33:56.220Z,22.58
2022-10-18T11:37:27.182Z,22.75
2022-10-18T11:40:49.981Z,23.09
2022-10-18T11:44:03.570Z,23.58
2022-10-18T11:47:52.274Z,23.84
2022-10-18T11:51:04.570Z,24.22
2022-10-18T11:54:26.996Z,24.07
2022-10-18T11:57:37.953Z,24.39
2022-10-18T12:00:45.980Z,24.12
2022-10-18T12:04:09.127Z,24.68
2022-10-18T12:07:14.208Z,25.30
2022-10-18T12:10:26.318Z,25.14
2022-10-18T12:13:47.051Z,25.72
2022-10-18T12:16:52.365Z,26.35
2022-10-18T12:20:04.861Z,26.39
2022-10-18T12:23:35.268Z,26.88
2022-10-18T12:26:38.183Z,26.64
2022-10-18T12:30:03.508Z,25.75
2022-10-18T12:33:27.191Z,25.67
2022-10-18T12:36:43.919Z,26.67
2022-10-18T12:40:10.251Z,27.15
2022-10-18T12:43:36.981Z,28.48
2022-10-18T12:46:57.625Z,28.54
2022-10-18T12:50:06.855Z,29.21
2022-10-18T12:53:09.571Z,28.25
2022-10-18T12:56:27.966Z,27.98
2022-10-18T12:59:30.623Z,27.66
2022-10-18T13:02:33.977Z,27.58
2022-10-18T13:05:54.673Z,27.33
2022-10-18T13:09:17.189Z,28.44
2022-10-18T13:12:19.817Z,29.60
2022-10-18T13:15:46.328Z,27.71
2022-10-18T13:18:58.957Z,27.83
2022-10-18T13:22:15.297Z,27.80
2022-10-18T13:25:23.701Z,28.53
2022-10-18T13:28:39.789Z,28.85
2022-10-18T13:31:48.810Z,28.45
2022-10-18T13:34:51.879Z,27.32
2022-10-18T13:37:59.915Z,27.02
2022-10-18T13:41:12.850Z,27.84
2022-10-18T13:44:28.842Z,27.62
2022-10-18T13:47:37.157Z,28.20
2022-10-18T13:50:42.128Z,28.07
2022-10-18T13:54:01.120Z,28.18
2022-10-18T13:57:32.252Z,28.53
2022-10-18T14:00:58.763Z,28.66
2022-10-18T14:04:20.579Z,28.98
2022-10-18T14:07:25.756Z,28.77
2022-10-18T14:10:57.262Z,29.34
2022-10-18T14:14:23.238Z,29.39
2022-10-18T14:17:35.948Z,29.79
2022-10-18T14:21:12.175Z,28.78
2022-10-18T14:24:21.115Z,30.11
2022-10-18T14:27:26.671Z,30.87
2022-10-18T14:30:29.681Z,29.24
2022-10-18T14:33:36.225Z,28.88
2022-10-18T14:36:43.638Z,28.17
2022-10-18T14:39:46.771Z,27.45
2022-10-18T14:42:50.728Z,26.87
2022-10-18T14:45:53.543Z,26.02
2022-10-18T14:48:58.950Z,27.15
2022-10-18T14:52:01.842Z,27.43
2022-10-18T14:55:05.295Z,27.05
2022-10-18T14:58:14.510Z,25.31
2022-10-18T15:01:18.753Z,25.11
2022-10-18T15:04:27.704Z,25.74
2022-10-18T15:07:32.610Z,25.77
2022-10-18T15:10:35.511Z,26.31
2022-10-18T15:13:46.598Z,26.06
2022-10-18T15:16:50.738Z,26.25
2022-10-18T15:20:01.808Z,26.55
2022-10-18T15:23:32.646Z,26.62
2022-10-18T15:26:35.656Z,25.01
2022-10-18T15:29:38.414Z,25.57
2022-10-18T15:33:09.878Z,25.58
2022-10-18T15:36:24.992Z,23.78
2022-10-18T15:39:32.296Z,23.14
2022-10-18T15:42:37.428Z,22.21
2022-10-18T15:45:49.139Z,21.79
2022-10-18T15:48:51.843Z,21.09
2022-10-18T15:52:15.840Z,20.60
2022-10-18T15:55:30.706Z,19.87
2022-10-18T15:58:39.172Z,19.52
2022-10-18T16:01:43.858Z,19.08
2022-10-18T16:04:47.839Z,18.73
2022-10-18T16:07:53.656Z,18.23
2022-10-18T16:10:58.903Z,17.66
2022-10-18T16:14:01.791Z,17.59
2022-10-18T16:17:06.410Z,17.44
2022-10-18T16:20:19.530Z,17.30
2022-10-18T16:23:26.270Z,16.97
2022-10-18T16:26:29.551Z,16.90
2022-10-18T16:29:35.424Z,16.90
2022-10-18T16:32:38.204Z,16.67
2022-10-18T16:35:41.264Z,16.56
2022-10-18T16:38:44.347Z,16.65
2022-10-18T16:41:51.787Z,16.47
2022-10-18T16:44:55.143Z,16.39
2022-10-18T16:47:58.389Z,16.15
2022-10-18T16:51:01.415Z,16.19
2022-10-18T16:54:05.555Z,16.17
2022-10-18T16:57:11.915Z,16.04
2022-10-18T17:00:22.172Z,16.13
2022-10-18T17:03:25.810Z,15.93
2022-10-18T17:06:30.445Z,15.87
2022-10-18T17:09:35.501Z,16.01
2022-10-18T17:12:38.910Z,15.89
2022-10-18T17:15:45.000Z,15.89
2022-10-18T17:18:48.812Z,15.92
2022-10-18T17:21:51.853Z,16.01
2022-10-18T17:24:55.202Z,15.33
2022-10-18T17:27:58.445Z,15.68
2022-10-18T17:31:03.169Z,15.64
2022-10-18T17:34:06.892Z,15.54
2022-10-18T17:37:10.321Z,15.53
2022-10-18T17:40:13.938Z,15.51
2022-10-18T17:43:17.559Z,15.50
2022-10-18T17:46:21.507Z,15.57
2022-10-18T17:49:24.991Z,15.65
2022-10-18T17:52:27.985Z,15.50
2022-10-18T17:55:31.701Z,15.35
2022-10-18T17:58:35.720Z,15.17
2022-10-18T18:01:39.571Z,15.04
2022-10-18T18:04:43.065Z,15.04
2022-10-18T18:07:46.980Z,15.11
2022-10-18T18:10:54.967Z,15.27
2022-10-18T18:13:58.790Z,15.31
2022-10-18T18:17:02.574Z,15.38
2022-10-18T18:20:06.541Z,15.29
2022-10-18T18:23:10.704Z,15.29
2022-10-18T18:26:14.812Z,15.27
2022-10-18T18:29:23.559Z,15.23
2022-10-18T18:32:27.309Z,15.12
2022-10-18T18:35:31.114Z,14.93
2022-10-18T18:38:35.929Z,14.81
2022-10-18T18:41:39.932Z,14.64
2022-10-18T18:44:46.311Z,14.45
2022-10-18T18:47:51.138Z,14.47
2022-10-18T18:50:54.584Z,14.43
2022-10-18T18:53:58.259Z,14.47
2022-10-18T18:57:05.650Z,14.44
2022-10-18T19:00:10.588Z,14.41
2022-10-18T19:03:16.031Z,14.37
2022-10-18T19:06:40.945Z,14.24
2022-10-18T19:09:48.703Z,14.08
2022-10-18T19:12:52.207Z,14.04
2022-10-18T19:16:38.214Z,14.06
2022-10-18T19:19:41.686Z,13.89
2022-10-18T19:22:46.090Z,13.71
2022-10-18T19:25:49.798Z,13.64
2022-10-18T19:28:53.608Z,13.69
2022-10-18T19:31:59.725Z,13.85
2022-10-18T19:35:03.047Z,13.93
2022-10-18T19:38:06.620Z,14.04
2022-10-18T19:41:09.955Z,14.07
2022-10-18T19:44:13.948Z,14.15
2022-10-18T19:47:17.281Z,13.91
2022-10-18T19:50:20.918Z,13.47
2022-10-18T19:53:25.144Z,13.56
2022-10-18T19:56:31.013Z,13.53
2022-10-18T19:59:36.138Z,13.41
2022-10-18T20:02:39.322Z,13.37
2022-10-18T20:05:42.704Z,13.25
2022-10-18T20:08:45.495Z,13.21
2022-10-18T20:11:49.798Z,13.17
2022-10-18T20:14:52.786Z,13.37
2022-10-18T20:17:56.863Z,13.32
2022-10-18T20:21:00.024Z,13.38
2022-10-18T20:24:06.686Z,13.46
2022-10-18T20:27:09.621Z,13.49
2022-10-18T20:30:12.668Z,13.54
2022-10-18T20:33:15.714Z,13.53
2022-10-18T20:36:20.551Z,13.53
2022-10-18T20:39:23.967Z,13.50
2022-10-18T20:42:27.040Z,13.44
2022-10-18T20:45:29.742Z,13.37
2022-10-18T20:48:33.704Z,13.23
2022-10-18T20:51:36.526Z,13.07
2022-10-18T20:54:39.829Z,13.05
2022-10-18T20:57:43.177Z,13.01
2022-10-18T21:00:46.406Z,12.88
2022-10-18T21:03:50.381Z,12.85
2022-10-18T21:06:53.461Z,12.77
2022-10-18T21:09:56.342Z,12.74
2022-10-18T21:12:59.348Z,12.85
2022-10-18T21:16:03.262Z,12.93
2022-10-18T21:19:08.694Z,13.01
2022-10-18T21:22:11.500Z,12.76
2022-10-18T21:25:14.620Z,12.76
2022-10-18T21:28:17.443Z,12.64
2022-10-18T21:31:23.019Z,12.65
2022-10-18T21:34:26.443Z,12.31
2022-10-18T21:37:29.803Z,12.41
2022-10-18T21:40:35.515Z,12.37
2022-10-18T21:43:44.325Z,12.08
2022-10-18T21:46:47.133Z,12.17
2022-10-18T21:49:50.152Z,12.12
2022-10-18T21:52:53.128Z,12.03
2022-10-18T21:55:56.113Z,11.99
2022-10-18T21:58:59.536Z,12.03
2022-10-18T22:02:03.094Z,12.00
2022-10-18T22:05:08.377Z,11.88
2022-10-18T22:08:13.996Z,11.93
2022-10-18T22:11:18.800Z,11.96
2022-10-18T22:14:22.014Z,11.93
2022-10-18T22:17:25.078Z,11.96
2022-10-18T22:20:28.111Z,12.05
2022-10-18T22:23:42.725Z,12.06
2022-10-18T22:26:46.181Z,12.06
2022-10-18T22:29:49.288Z,12.00
2022-10-18T22:32:52.053Z,11.88
2022-10-18T22:35:55.104Z,11.83
2022-10-18T22:38:57.903Z,11.85
2022-10-18T22:42:00.924Z,11.81
2022-10-18T22:45:03.906Z,11.74
2022-10-18T22:48:08.239Z,11.64
2022-10-18T22:51:11.900Z,11.65
2022-10-18T22:54:15.195Z,11.55
2022-10-18T22:57:17.917Z,11.51
2022-10-18T23:00:20.910Z,11.56
2022-10-18T23:03:23.660Z,11.20
2022-10-18T23:06:32.204Z,11.29
2022-10-18T23:09:35.036Z,11.28
2022-10-18T23:12:38.080Z,11.27
2022-10-18T23:15:40.833Z,11.22
2022-10-18T23:18:43.959Z,11.19
2022-10-18T23:21:46.810Z,11.09
2022-10-18T23:24:49.928Z,11.02
2022-10-18T23:27:52.690Z,10.96
2022-10-18T23:30:56.113Z,10.91
2022-10-18T23:34:03.470Z,10.84
2022-10-18T23:37:07.335Z,10.87
2022-10-18T23:40:10.446Z,10.86
2022-10-18T23:43:14.239Z,10.88
2022-10-18T23:46:17.819Z,10.91
2022-10-18T23:49:20.851Z,10.95
2022-10-18T23:52:24.922Z,11.01
2022-10-18T23:55:27.926Z,11.07
2022-10-18T23:58:31.902Z,11.05
